Time;durP1;ratioP1;P1;durP2;ratioP2;P2;SDS_P1;SDS_P2;PMS_P1;PMS_P2;Temp;Humidity;BMP_temperature;BMP_pressure;BME280_temperature;BME280_humidity;BME280_pressure;Samples;Min_cycle;Max_cycle;Signal;HPM_P1;HPM_P2
2022/03/09 00:01:49;;;;;;;5.47;3.20;;;4.30;99.90;;;;;;10412767;28;84260;-51
2022/03/09 00:06:49;;;;;;;10.25;4.60;;;4.20;99.90;;;;;;10410026;28;84089;-48
2022/03/09 00:11:50;;;;;;;8.65;3.85;;;4.30;99.90;;;;;;10412907;28;83890;-48
2022/03/09 00:16:51;;;;;;;7.32;3.45;;;4.30;99.90;;;;;;10412197;28;83765;-46
2022/03/09 00:21:53;;;;;;;5.93;3.72;;;4.10;99.90;;;;;;10411676;28;83747;-46
2022/03/09 00:26:53;;;;;;;5.85;3.20;;;4.10;99.90;;;;;;10369096;28;83990;-47
2022/03/09 00:31:54;;;;;;;7.13;2.85;;;4.10;99.90;;;;;;10393759;28;84393;-46
2022/03/09 00:36:55;;;;;;;6.03;2.63;;;4.10;99.90;;;;;;10410501;28;84094;-49
2022/03/09 00:41:55;;;;;;;7.78;3.25;;;4.00;99.90;;;;;;10392709;28;89532;-46
2022/03/09 00:46:56;;;;;;;5.65;3.00;;;4.00;99.90;;;;;;10410532;28;84155;-46
2022/03/09 00:51:57;;;;;;;5.38;2.83;;;4.00;99.90;;;;;;10388543;28;83827;-47
2022/03/09 00:56:57;;;;;;;6.15;2.63;;;4.00;99.90;;;;;;10385876;28;88138;-46
2022/03/09 01:01:58;;;;;;;6.22;3.28;;;3.80;99.90;;;;;;10410527;28;84319;-49
2022/03/09 01:06:59;;;;;;;6.53;3.22;;;3.80;99.90;;;;;;10409556;28;84148;-47
2022/03/09 01:11:59;;;;;;;6.07;2.55;;;3.80;99.90;;;;;;10410675;28;86416;-45
2022/03/09 01:17:00;;;;;;;6.15;2.70;;;3.70;99.90;;;;;;10409161;28;83803;-47
2022/03/09 01:22:00;;;;;;;8.20;3.50;;;3.60;99.90;;;;;;10391202;28;84314;-44
2022/03/09 01:27:01;;;;;;;9.73;3.38;;;3.60;99.90;;;;;;10409738;28;84073;-48
2022/03/09 01:32:02;;;;;;;6.65;3.70;;;3.50;99.90;;;;;;10409586;28;84091;-48
2022/03/09 01:37:04;;;;;;;4.85;2.72;;;3.40;99.90;;;;;;10408590;28;84769;-45
2022/03/09 01:42:04;;;;;;;4.45;2.42;;;3.40;99.90;;;;;;10409215;28;83731;-48
2022/03/09 01:47:05;;;;;;;6.50;2.80;;;3.30;99.90;;;;;;10408526;28;84061;-47
2022/03/09 01:52:07;;;;;;;5.75;2.47;;;3.20;1.00;;;;;;10408432;28;83615;-50
2022/03/09 01:57:09;;;;;;;5.47;2.60;;;3.00;1.00;;;;;;10408255;28;84181;-46
2022/03/09 02:02:09;;;;;;;6.90;2.92;;;2.90;1.00;;;;;;10409077;28;84079;-49
2022/03/09 02:07:11;;;;;;;5.32;2.72;;;2.70;1.00;;;;;;10389150;28;85215;-46
2022/03/09 02:12:16;;;;;;;5.38;2.80;;;2.70;1.00;;;;;;10390508;28;86328;-49
2022/03/09 02:17:20;;;;;;;6.50;2.45;;;2.70;1.00;;;;;;10407819;28;83852;-47
2022/03/09 02:22:33;;;;;;;4.03;2.90;;;2.70;1.00;;;;;;10408602;28;83742;-52
2022/03/09 02:27:33;;;;;;;6.55;3.20;;;2.70;1.00;;;;;;10389054;28;83911;-47
2022/03/09 02:32:44;;;;;;;5.15;2.67;;;2.80;1.00;;;;;;10407715;28;84140;-47
2022/03/09 02:37:45;;;;;;;4.25;2.45;;;2.80;1.00;;;;;;10407213;28;83888;-46
2022/03/09 02:42:46;;;;;;;5.82;3.30;;;2.80;1.00;;;;;;10407163;28;84004;-46
2022/03/09 02:47:46;;;;;;;6.20;3.20;;;2.70;1.00;;;;;;10405472;28;84736;-49
2022/03/09 02:52:47;;;;;;;3.80;2.63;;;2.80;1.00;;;;;;10422095;22;84066;-52
2022/03/09 02:57:48;;;;;;;3.22;2.28;;;2.70;1.00;;;;;;10410327;28;83752;-52
2022/03/09 03:02:48;;;;;;;6.57;3.05;;;2.70;1.00;;;;;;10395900;28;83266;-56
2022/03/09 03:07:49;;;;;;;4.05;2.55;;;2.70;1.00;;;;;;10403427;28;86669;-55
2022/03/09 03:12:50;;;;;;;5.45;2.97;;;2.60;1.00;;;;;;10410034;28;83458;-56
2022/03/09 03:17:50;;;;;;;6.82;2.97;;;2.60;1.00;;;;;;10372906;28;84158;-52
2022/03/09 03:22:51;;;;;;;3.83;2.38;;;2.50;1.00;;;;;;10368157;28;84144;-53
2022/03/09 03:27:51;;;;;;;7.28;3.15;;;2.60;1.00;;;;;;10403162;28;83950;-52
2022/03/09 03:32:52;;;;;;;4.63;2.25;;;2.60;1.00;;;;;;10387048;28;83352;-56
2022/03/09 03:37:52;;;;;;;11.20;2.70;;;2.50;1.00;;;;;;10348581;28;85264;-53
2022/03/09 03:42:53;;;;;;;3.13;1.90;;;2.50;1.00;;;;;;10388278;28;83398;-51
2022/03/09 03:47:54;;;;;;;6.28;2.83;;;2.40;1.00;;;;;;10408076;28;83337;-53
2022/03/09 03:52:54;;;;;;;7.53;3.05;;;2.30;1.00;;;;;;10386968;28;83243;-54
2022/03/09 03:57:55;;;;;;;5.75;2.95;;;2.30;1.00;;;;;;10363971;28;83831;-53
2022/03/09 04:02:56;;;;;;;4.20;2.22;;;2.30;1.00;;;;;;10364337;28;83985;-52
2022/03/09 04:07:56;;;;;;;5.32;2.50;;;2.10;1.00;;;;;;10367131;28;85000;-52
2022/03/09 04:13:00;;;;;;;4.28;2.60;;;2.20;1.00;;;;;;10377816;28;84269;-54
2022/03/09 04:18:01;;;;;;;5.40;1.98;;;2.10;1.00;;;;;;10353742;28;83517;-52
2022/03/09 04:23:06;;;;;;;5.85;3.30;;;2.10;1.00;;;;;;10377584;28;85929;-51
2022/03/09 04:28:07;;;;;;;5.10;2.67;;;2.00;1.00;;;;;;10365796;28;84817;-54
2022/03/09 04:33:08;;;;;;;4.97;2.35;;;2.00;1.00;;;;;;10346751;28;83912;-52
2022/03/09 04:38:08;;;;;;;4.78;2.20;;;2.00;1.00;;;;;;10385276;28;83394;-52
2022/03/09 04:43:09;;;;;;;5.35;2.30;;;2.00;1.00;;;;;;10382887;28;84450;-52
2022/03/09 04:48:10;;;;;;;6.53;2.95;;;1.90;1.00;;;;;;10364219;28;84287;-55
2022/03/09 04:53:10;;;;;;;7.43;2.92;;;1.90;1.00;;;;;;10347486;28;83977;-52
2022/03/09 04:58:11;;;;;;;5.10;2.53;;;1.90;1.00;;;;;;10373762;28;84454;-52
2022/03/09 05:03:12;;;;;;;5.68;2.42;;;1.90;1.00;;;;;;10355492;28;84167;-54
2022/03/09 05:08:13;;;;;;;4.35;2.53;;;1.90;1.00;;;;;;10362069;28;83360;-55
2022/03/09 05:13:14;;;;;;;4.68;2.35;;;1.90;1.00;;;;;;10366976;28;83966;-54
2022/03/09 05:18:15;;;;;;;7.00;3.20;;;1.90;1.00;;;;;;10370499;28;84507;-53
2022/03/09 05:23:16;;;;;;;3.65;2.17;;;1.80;1.00;;;;;;10371728;28;83384;-56
2022/03/09 05:28:17;;;;;;;4.78;2.50;;;1.80;1.00;;;;;;10372396;28;83459;-56
2022/03/09 05:33:17;;;;;;;5.22;2.90;;;1.80;1.00;;;;;;10370695;28;84507;-52
2022/03/09 05:38:19;;;;;;;5.75;2.65;;;1.70;1.00;;;;;;10371817;28;83438;-56
2022/03/09 05:43:19;;;;;;;7.10;2.60;;;1.70;1.00;;;;;;10370494;28;84113;-53
2022/03/09 05:48:21;;;;;;;5.75;2.10;;;1.70;1.00;;;;;;10370870;28;84166;-53
2022/03/09 05:53:22;;;;;;;8.07;2.90;;;1.70;1.00;;;;;;10370020;28;84074;-52
2022/03/09 05:58:22;;;;;;;5.32;3.03;;;1.70;1.00;;;;;;10372447;28;84485;-53
2022/03/09 06:03:23;;;;;;;3.35;2.00;;;1.60;1.00;;;;;;10369823;28;85163;-52
2022/03/09 06:08:24;;;;;;;4.82;2.50;;;1.60;1.00;;;;;;10369878;28;84160;-55
2022/03/09 06:13:24;;;;;;;3.88;2.75;;;1.60;1.00;;;;;;10366801;28;84246;-54
2022/03/09 06:18:25;;;;;;;5.10;2.58;;;1.60;1.00;;;;;;10397061;28;83263;-56
2022/03/09 06:23:25;;;;;;;5.20;2.42;;;1.70;1.00;;;;;;10410566;28;84135;-57
2022/03/09 06:28:26;;;;;;;5.55;2.85;;;1.70;1.00;;;;;;10385023;28;83217;-56
2022/03/09 06:33:27;;;;;;;6.03;2.70;;;1.70;1.00;;;;;;10388732;28;83965;-57
2022/03/09 06:38:27;;;;;;;10.48;2.33;;;1.80;1.00;;;;;;10389062;28;84020;-56
2022/03/09 06:43:28;;;;;;;4.65;2.03;;;1.80;1.00;;;;;;10385022;28;83686;-57
2022/03/09 06:48:29;;;;;;;7.25;2.67;;;1.70;1.00;;;;;;10390368;28;83873;-53
2022/03/09 06:53:30;;;;;;;4.68;2.22;;;1.80;1.00;;;;;;10390928;28;83987;-57
2022/03/09 06:58:31;;;;;;;6.80;2.65;;;1.90;1.00;;;;;;10385721;28;84450;-57
2022/03/09 07:03:32;;;;;;;8.75;2.97;;;2.10;1.00;;;;;;10385852;28;84106;-54
2022/03/09 07:08:32;;;;;;;3.75;2.25;;;2.60;1.00;;;;;;10390086;28;83629;-57
2022/03/09 07:13:34;;;;;;;6.43;2.47;;;3.30;99.90;;;;;;10385624;28;83902;-58
2022/03/09 07:18:34;;;;;;;7.55;3.10;;;4.10;99.90;;;;;;10379113;28;83943;-54
2022/03/09 07:23:35;;;;;;;5.85;2.15;;;5.00;1.00;;;;;;10367041;28;84139;-56
2022/03/09 07:28:35;;;;;;;6.90;2.97;;;5.50;1.00;;;;;;10365699;28;83896;-52
2022/03/09 07:33:37;;;;;;;7.95;3.40;;;6.10;99.90;;;;;;10369825;28;83438;-56
2022/03/09 07:38:38;;;;;;;4.63;2.55;;;6.60;1.00;;;;;;10372897;28;83946;-58
2022/03/09 07:43:39;;;;;;;5.63;2.92;;;7.00;1.00;;;;;;10375335;28;83979;-56
2022/03/09 07:48:39;;;;;;;5.82;2.90;;;7.50;1.00;;;;;;10372661;28;84142;-57
2022/03/09 07:53:42;;;;;;;7.80;2.83;;;8.10;1.00;;;;;;10374818;28;83398;-55
2022/03/09 07:58:43;;;;;;;5.32;3.30;;;8.30;1.00;;;;;;10374517;28;83258;-55
2022/03/09 08:03:44;;;;;;;8.68;3.33;;;9.10;42.30;;;;;;10375072;28;84218;-56
2022/03/09 08:08:44;;;;;;;7.13;3.33;;;9.70;1.00;;;;;;10374232;28;83404;-56
2022/03/09 08:13:45;;;;;;;6.70;3.35;;;10.10;99.90;;;;;;10375557;28;83188;-56
2022/03/09 08:18:46;;;;;;;7.07;3.13;;;10.50;1.00;;;;;;10389917;28;85082;-56
2022/03/09 08:23:46;;;;;;;7.45;3.63;;;11.40;1.00;;;;;;10376805;28;84139;-53
2022/03/09 08:28:47;;;;;;;5.82;3.33;;;12.30;1.00;;;;;;10376389;28;84112;-55
2022/03/09 08:33:48;;;;;;;6.57;3.58;;;12.90;99.90;;;;;;10374801;28;84266;-56
2022/03/09 08:38:48;;;;;;;7.43;3.80;;;13.30;86.90;;;;;;10374840;28;84389;-54
2022/03/09 08:43:49;;;;;;;7.68;3.70;;;13.70;1.00;;;;;;10372723;28;85760;-57
2022/03/09 08:48:50;;;;;;;6.30;3.35;;;14.20;1.00;;;;;;10375039;28;84176;-57
2022/03/09 08:53:51;;;;;;;4.53;3.05;;;14.40;1.00;;;;;;10413711;22;84982;-47
2022/03/09 08:58:52;;;;;;;6.50;3.47;;;14.40;1.00;;;;;;10410849;28;88112;-48
2022/03/09 09:03:52;;;;;;;5.80;3.05;;;15.30;1.00;;;;;;10411742;28;83671;-47
2022/03/09 09:08:53;;;;;;;6.22;3.45;;;15.50;1.00;;;;;;10410632;28;84081;-48
2022/03/09 09:13:54;;;;;;;5.45;2.88;;;15.60;99.90;;;;;;10410752;28;83922;-48
2022/03/09 09:18:56;;;;;;;5.38;2.80;;;15.70;1.00;;;;;;10409820;28;84031;-49
2022/03/09 09:23:56;;;;;;;6.43;2.85;;;15.70;99.90;;;;;;10410953;28;83607;-49
2022/03/09 09:28:57;;;;;;;5.22;2.90;;;15.50;99.90;;;;;;10409659;28;99404;-47
2022/03/09 09:33:58;;;;;;;5.47;3.38;;;15.90;99.90;;;;;;10410500;28;83675;-47
2022/03/09 09:38:58;;;;;;;7.53;3.80;;;15.30;99.90;;;;;;10409850;28;83597;-47
2022/03/09 09:44:00;;;;;;;7.95;3.50;;;16.20;99.90;;;;;;10409814;28;83775;-44
2022/03/09 09:49:01;;;;;;;5.75;3.30;;;16.70;99.90;;;;;;10408091;28;84107;-48
2022/03/09 09:54:02;;;;;;;5.53;3.15;;;16.60;99.90;;;;;;10409118;28;84131;-49
2022/03/09 09:59:03;;;;;;;5.30;3.15;;;16.60;99.90;;;;;;10410379;28;84086;-46
2022/03/09 10:04:05;;;;;;;5.78;3.65;;;17.10;99.90;;;;;;10410723;28;84506;-50
2022/03/09 10:09:07;;;;;;;5.63;3.65;;;18.10;1.00;;;;;;10410508;28;83817;-46
2022/03/09 10:14:07;;;;;;;8.02;4.05;;;17.50;31.70;;;;;;10410414;28;83615;-45
2022/03/09 10:19:09;;;;;;;4.68;3.33;;;18.10;1.00;;;;;;10411226;28;89936;-45
2022/03/09 10:24:11;;;;;;;5.13;3.13;;;17.60;1.00;;;;;;10410681;28;84001;-45
2022/03/09 10:29:15;;;;;;;8.63;3.55;;;18.00;1.00;;;;;;10409295;28;85180;-47
2022/03/09 10:34:19;;;;;;;4.57;3.20;;;19.30;1.00;;;;;;10409686;28;83875;-50
2022/03/09 10:39:21;;;;;;;5.97;3.80;;;19.50;1.00;;;;;;10409219;28;84163;-48
2022/03/09 10:44:44;;;;;;;8.02;4.10;;;20.40;99.90;;;;;;10409717;28;84227;-48
2022/03/09 10:49:45;;;;;;;6.57;3.95;;;20.20;99.90;;;;;;10408015;28;83850;-49
2022/03/09 10:54:46;;;;;;;6.57;3.20;;;19.10;1.00;;;;;;10409093;28;84200;-50
2022/03/09 10:59:51;;;;;;;5.95;3.60;;;19.40;1.00;;;;;;10408866;28;84007;-47
2022/03/09 11:05:05;;;;;;;4.93;3.22;;;19.20;1.00;;;;;;10409085;28;85930;-47
2022/03/09 11:10:09;;;;;;;4.93;3.53;;;19.90;1.00;;;;;;10415049;28;84200;-49
2022/03/09 11:15:12;;;;;;;6.95;3.78;;;19.40;1.00;;;;;;10416672;28;83772;-47
2022/03/09 11:20:15;;;;;;;7.18;3.95;;;19.50;1.00;;;;;;10415730;28;84025;-48
2022/03/09 11:25:20;;;;;;;6.13;3.67;;;19.80;1.00;;;;;;10415228;28;84308;-49
2022/03/09 11:30:29;;;;;;;8.52;4.32;;;19.00;1.00;;;;;;10415042;28;83715;-48
2022/03/09 11:35:38;;;;;;;5.95;3.60;;;19.30;1.00;;;;;;10414636;28;83888;-47
2022/03/09 11:40:39;;;;;;;8.63;3.78;;;19.70;1.00;;;;;;10415895;28;84326;-51
2022/03/09 11:45:49;;;;;;;5.55;4.13;;;20.40;1.00;;;;;;10413883;28;84492;-48
2022/03/09 11:50:50;;;;;;;6.13;3.58;;;20.10;1.00;;;;;;10415621;28;84017;-49
2022/03/09 11:56:29;;;;;;;5.32;3.63;;;19.50;1.00;;;;;;10413682;28;84156;-50
2022/03/09 12:01:29;;;;;;;9.32;4.00;;;18.80;1.00;;;;;;10415346;28;84179;-47
2022/03/09 12:06:43;;;;;;;4.35;3.50;;;19.00;1.00;;;;;;10413150;28;95082;-49
2022/03/09 12:12:06;;;;;;;6.80;3.38;;;19.50;1.00;;;;;;10414119;28;83986;-51
2022/03/09 12:17:07;;;;;;;6.10;4.18;;;19.90;1.00;;;;;;10413811;28;83363;-47
2022/03/09 12:22:08;;;;;;;5.13;3.60;;;20.00;1.00;;;;;;10412862;28;84034;-46
2022/03/09 12:27:22;;;;;;;4.82;3.40;;;19.60;1.00;;;;;;10412445;28;84141;-47
2022/03/09 12:32:24;;;;;;;6.13;3.97;;;20.60;1.00;;;;;;10413662;28;83830;-47
2022/03/09 12:37:25;;;;;;;5.13;3.55;;;20.80;1.00;;;;;;10412753;28;83975;-46
2022/03/09 12:42:28;;;;;;;5.00;3.38;;;20.50;1.00;;;;;;10413347;28;83983;-50
2022/03/09 12:47:34;;;;;;;7.30;3.78;;;20.10;1.00;;;;;;10413123;28;83807;-49
2022/03/09 12:52:41;;;;;;;6.00;3.67;;;21.00;1.00;;;;;;10413317;28;83822;-50
2022/03/09 12:57:53;;;;;;;6.15;3.75;;;20.20;1.00;;;;;;10413273;28;84341;-47
2022/03/09 13:02:55;;;;;;;5.65;3.45;;;19.30;1.00;;;;;;10413399;28;83974;-46
2022/03/09 13:08:05;;;;;;;6.07;3.40;;;20.20;1.00;;;;;;10412187;28;84293;-47
2022/03/09 13:13:06;;;;;;;5.32;3.47;;;20.60;1.00;;;;;;10411962;28;83645;-51
2022/03/09 13:18:11;;;;;;;5.43;3.83;;;20.50;1.00;;;;;;10411786;28;94361;-49
2022/03/09 13:23:47;;;;;;;6.07;3.70;;;20.10;1.00;;;;;;10411967;28;84246;-46
2022/03/09 13:29:00;;;;;;;4.57;3.33;;;20.50;1.00;;;;;;10411641;28;84294;-50
2022/03/09 13:34:13;;;;;;;6.28;3.58;;;20.40;1.00;;;;;;10411871;28;83865;-49
2022/03/09 13:39:13;;;;;;;6.18;3.88;;;19.90;1.00;;;;;;10411250;28;83739;-48
2022/03/09 13:44:28;;;;;;;5.63;3.70;;;19.70;1.00;;;;;;10411372;28;84131;-48
2022/03/09 13:49:43;;;;;;;5.75;3.50;;;20.50;1.00;;;;;;10411055;28;84082;-48
2022/03/09 13:54:46;;;;;;;6.15;3.22;;;20.20;1.00;;;;;;10410680;28;84120;-48
2022/03/09 13:59:46;;;;;;;6.47;4.13;;;20.50;1.00;;;;;;10410127;28;84034;-48
2022/03/09 14:04:48;;;;;;;4.75;3.55;;;20.10;1.00;;;;;;10411445;28;83839;-51
2022/03/09 14:10:12;;;;;;;5.65;3.15;;;19.30;1.00;;;;;;10410396;28;83903;-46
2022/03/09 14:15:14;;;;;;;3.53;3.20;;;17.70;99.90;;;;;;10410179;28;84032;-50
2022/03/09 14:20:14;;;;;;;4.75;2.97;;;16.60;1.00;;;;;;10410201;28;83977;-44
2022/03/09 14:25:20;;;;;;;5.13;3.20;;;16.20;1.00;;;;;;10410156;28;83720;-48
2022/03/09 14:30:24;;;;;;;5.10;3.30;;;15.90;1.00;;;;;;10409525;28;84145;-47
2022/03/09 14:35:25;;;;;;;4.90;3.03;;;15.90;1.00;;;;;;10409622;28;83905;-44
2022/03/09 14:40:27;;;;;;;8.73;3.58;;;15.90;99.90;;;;;;10409064;28;83826;-48
2022/03/09 14:45:28;;;;;;;3.65;2.72;;;16.10;99.90;;;;;;10408131;28;83696;-46
2022/03/09 14:50:29;;;;;;;4.90;3.08;;;16.90;99.90;;;;;;10407180;28;86414;-47
2022/03/09 14:55:30;;;;;;;4.50;2.97;;;17.70;1.00;;;;;;10489252;22;84272;-57
2022/03/09 15:00:31;;;;;;;4.43;3.35;;;17.60;99.90;;;;;;10494688;27;83921;-54
2022/03/09 15:05:31;;;;;;;4.30;3.22;;;17.70;99.90;;;;;;10493405;27;84889;-57
2022/03/09 15:10:32;;;;;;;5.95;3.15;;;17.70;1.00;;;;;;10494426;27;83341;-55
2022/03/09 15:15:33;;;;;;;4.97;3.35;;;17.70;1.00;;;;;;10492175;27;83221;-58
2022/03/09 15:20:34;;;;;;;4.53;3.05;;;17.20;1.00;;;;;;10493502;27;83339;-57
2022/03/09 15:25:35;;;;;;;5.88;3.15;;;16.50;99.90;;;;;;10492859;27;83348;-54
2022/03/09 15:30:35;;;;;;;4.60;3.38;;;15.70;99.90;;;;;;10494940;27;84098;-55
2022/03/09 15:35:36;;;;;;;5.05;2.92;;;15.20;99.90;;;;;;10493856;27;83241;-56
2022/03/09 15:40:37;;;;;;;4.13;2.75;;;15.00;99.90;;;;;;10494700;27;83471;-56
2022/03/09 15:45:38;;;;;;;4.82;3.20;;;14.80;99.90;;;;;;10482286;27;84034;-61
2022/03/09 15:50:40;;;;;;;4.93;2.67;;;14.70;99.90;;;;;;10484808;27;83965;-63
2022/03/09 15:55:43;;;;;;;4.68;2.72;;;14.60;99.90;;;;;;10496271;27;83543;-63
2022/03/09 16:00:44;;;;;;;4.55;3.03;;;14.50;99.90;;;;;;10492898;27;84112;-63
2022/03/09 16:05:47;;;;;;;6.78;3.28;;;14.40;1.00;;;;;;10494224;27;84182;-64
2022/03/09 16:10:48;;;;;;;3.65;2.58;;;14.20;1.00;;;;;;10498906;27;83752;-59
2022/03/09 16:15:48;;;;;;;4.20;2.85;;;14.10;99.90;;;;;;10486687;27;84685;-62
2022/03/09 16:20:49;;;;;;;5.38;3.40;;;13.80;99.90;;;;;;10490850;27;84156;-65
2022/03/09 16:25:50;;;;;;;6.63;3.25;;;13.70;99.90;;;;;;10497813;27;83234;-62
2022/03/09 16:30:50;;;;;;;7.80;3.53;;;13.80;99.90;;;;;;10492867;27;83549;-62
2022/03/09 16:35:51;;;;;;;6.80;3.38;;;13.70;99.90;;;;;;10487631;27;84083;-61
2022/03/09 16:40:52;;;;;;;4.47;2.83;;;13.60;99.90;;;;;;10489631;27;84365;-60
2022/03/09 16:45:52;;;;;;;6.50;3.47;;;13.50;99.90;;;;;;10516303;27;83477;-63
2022/03/09 16:50:53;;;;;;;5.78;3.35;;;13.40;99.90;;;;;;10515090;27;83352;-65
2022/03/09 16:55:54;;;;;;;6.07;3.42;;;13.40;99.90;;;;;;10514468;27;83511;-63
2022/03/09 17:00:55;;;;;;;4.80;3.22;;;13.30;99.90;;;;;;10496419;27;86289;-63
2022/03/09 17:05:55;;;;;;;6.05;3.20;;;13.20;99.90;;;;;;10491317;27;85814;-60
2022/03/09 17:10:56;;;;;;;6.43;3.50;;;13.10;99.90;;;;;;10495393;27;84124;-61
2022/03/09 17:15:57;;;;;;;8.88;3.80;;;13.00;99.90;;;;;;10489991;27;86072;-60
2022/03/09 17:20:58;;;;;;;5.47;3.38;;;12.80;99.90;;;;;;10480280;27;83560;-61
2022/03/09 17:25:59;;;;;;;4.75;3.38;;;12.70;99.90;;;;;;10495528;27;84103;-64
2022/03/09 17:31:00;;;;;;;7.65;4.15;;;12.60;99.90;;;;;;10496002;27;85122;-63
2022/03/09 17:36:00;;;;;;;6.25;3.15;;;12.50;99.90;;;;;;10480946;27;84059;-61
2022/03/09 17:41:01;;;;;;;6.95;3.75;;;12.30;99.90;;;;;;10494600;27;84095;-64
2022/03/09 17:46:02;;;;;;;9.35;4.63;;;12.20;99.90;;;;;;10491526;27;84110;-57
2022/03/09 17:51:03;;;;;;;9.52;4.40;;;12.00;99.90;;;;;;10482523;27;84284;-56
2022/03/09 17:56:04;;;;;;;10.27;4.57;;;11.90;99.90;;;;;;10485652;27;84113;-57
2022/03/09 18:01:05;;;;;;;9.35;4.20;;;11.80;99.90;;;;;;10495436;27;84183;-59
2022/03/09 18:06:06;;;;;;;8.75;4.45;;;11.60;99.90;;;;;;10479473;27;84180;-60
2022/03/09 18:11:07;;;;;;;8.30;4.32;;;11.50;99.90;;;;;;10476084;27;83501;-59
2022/03/09 18:16:08;;;;;;;9.07;5.05;;;11.40;99.90;;;;;;10488368;27;84099;-57
2022/03/09 18:21:09;;;;;;;11.20;4.80;;;11.30;99.90;;;;;;10495831;27;83221;-57
2022/03/09 18:26:09;;;;;;;12.93;4.80;;;11.20;99.90;;;;;;10498202;27;84156;-58
2022/03/09 18:31:10;;;;;;;8.45;4.50;;;11.00;99.90;;;;;;10488404;27;83530;-60
2022/03/09 18:36:11;;;;;;;9.77;5.32;;;11.00;99.90;;;;;;10490862;27;84303;-54
2022/03/09 18:41:11;;;;;;;10.73;4.68;;;10.90;99.90;;;;;;10475773;27;83345;-55
2022/03/09 18:46:12;;;;;;;7.57;4.43;;;10.80;99.90;;;;;;10486069;27;85727;-59
2022/03/09 18:51:13;;;;;;;7.88;4.47;;;10.80;99.90;;;;;;10464310;27;84229;-57
2022/03/09 18:56:14;;;;;;;9.23;5.43;;;10.70;99.90;;;;;;10486797;27;83934;-59
2022/03/09 19:01:16;;;;;;;8.68;4.53;;;10.60;99.90;;;;;;10494519;27;83275;-53
2022/03/09 19:06:16;;;;;;;9.10;4.75;;;10.50;99.90;;;;;;10495450;27;83374;-58
2022/03/09 19:11:17;;;;;;;7.13;3.97;;;10.40;99.90;;;;;;10493402;27;84291;-59
2022/03/09 19:16:19;;;;;;;7.07;4.35;;;10.40;99.90;;;;;;10534925;27;83302;-58
2022/03/09 19:21:19;;;;;;;11.70;5.28;;;10.30;99.90;;;;;;10522377;27;83452;-59
2022/03/09 19:26:20;;;;;;;7.97;4.25;;;10.30;99.90;;;;;;10486522;27;84165;-60
2022/03/09 19:31:21;;;;;;;8.27;4.80;;;10.20;99.90;;;;;;10504172;27;85155;-59
2022/03/09 19:36:21;;;;;;;7.13;4.47;;;10.10;99.90;;;;;;10498884;27;83444;-60
2022/03/09 19:41:22;;;;;;;8.82;4.50;;;10.00;99.90;;;;;;10500987;27;83222;-57
2022/03/09 19:46:23;;;;;;;10.95;4.95;;;9.80;99.90;;;;;;10499853;27;84124;-56
2022/03/09 19:51:24;;;;;;;8.90;4.50;;;9.70;99.90;;;;;;10501328;27;84118;-55
2022/03/09 19:56:25;;;;;;;10.48;4.63;;;9.50;99.90;;;;;;10501899;27;84228;-61
2022/03/09 20:01:29;;;;;;;8.90;4.55;;;9.50;99.90;;;;;;10508093;27;83283;-60
2022/03/09 20:06:29;;;;;;;9.52;4.40;;;9.40;99.90;;;;;;10494998;27;84140;-59
2022/03/09 20:11:30;;;;;;;10.93;4.28;;;9.20;99.90;;;;;;10509882;27;83420;-60
2022/03/09 20:16:31;;;;;;;10.40;4.55;;;9.10;99.90;;;;;;10515742;27;84130;-59
2022/03/09 20:21:32;;;;;;;7.93;4.25;;;8.90;99.90;;;;;;10518955;27;83360;-59
2022/03/09 20:26:33;;;;;;;7.38;4.55;;;8.80;99.90;;;;;;10507500;27;83935;-56
2022/03/09 20:31:34;;;;;;;9.45;4.57;;;8.80;99.90;;;;;;10515816;27;83581;-61
2022/03/09 20:36:34;;;;;;;9.48;4.57;;;8.80;99.90;;;;;;10523307;27;83987;-60
2022/03/09 20:41:35;;;;;;;7.55;4.53;;;8.70;99.90;;;;;;10503266;27;84146;-57
2022/03/09 20:46:36;;;;;;;7.38;5.00;;;8.70;99.90;;;;;;10515810;27;83661;-58
2022/03/09 20:51:36;;;;;;;11.88;6.07;;;8.60;99.90;;;;;;10519687;27;84547;-60
2022/03/09 20:56:37;;;;;;;9.25;5.20;;;8.50;99.90;;;;;;10503799;22;83509;-47
2022/03/09 21:01:38;;;;;;;8.38;4.72;;;8.30;99.90;;;;;;10471528;27;83681;-49
2022/03/09 21:06:42;;;;;;;12.98;4.78;;;8.20;99.90;;;;;;10454209;27;84152;-48
2022/03/09 21:11:43;;;;;;;9.55;4.70;;;8.10;99.90;;;;;;10468994;27;84183;-47
2022/03/09 21:16:43;;;;;;;12.65;5.43;;;8.00;99.90;;;;;;10453447;28;90269;-49
2022/03/09 21:21:46;;;;;;;8.38;5.38;;;8.00;99.90;;;;;;10450097;28;84276;-52
2022/03/09 21:26:46;;;;;;;13.18;4.95;;;8.00;99.90;;;;;;10459946;27;83382;-53
2022/03/09 21:31:47;;;;;;;11.88;5.55;;;7.90;99.90;;;;;;10454289;28;84137;-48
2022/03/09 21:36:48;;;;;;;10.05;4.90;;;7.80;99.90;;;;;;10422482;28;83989;-50
2022/03/09 21:41:48;;;;;;;10.05;5.00;;;7.70;99.90;;;;;;10444817;27;92508;-48
2022/03/09 21:46:49;;;;;;;9.02;4.72;;;7.60;99.90;;;;;;10452667;28;83812;-50
2022/03/09 21:51:50;;;;;;;12.00;5.10;;;7.60;99.90;;;;;;10451781;27;84065;-49
2022/03/09 21:56:50;;;;;;;10.23;4.82;;;7.40;99.90;;;;;;10460888;27;83883;-51
2022/03/09 22:01:51;;;;;;;10.52;5.10;;;7.40;99.90;;;;;;10466769;27;91309;-50
2022/03/09 22:06:51;;;;;;;11.07;5.28;;;7.30;99.90;;;;;;10451108;28;85311;-47
2022/03/09 22:11:53;;;;;;;10.23;5.43;;;7.30;99.90;;;;;;10452789;28;89504;-48
2022/03/09 22:16:53;;;;;;;7.63;4.68;;;7.10;99.90;;;;;;10476360;27;84744;-49
2022/03/09 22:21:54;;;;;;;11.98;5.30;;;7.00;99.90;;;;;;10447941;27;85256;-47
2022/03/09 22:26:55;;;;;;;8.55;4.50;;;7.00;99.90;;;;;;10453271;27;84173;-47
2022/03/09 22:31:55;;;;;;;7.80;4.78;;;6.90;99.90;;;;;;10451932;28;85213;-46
2022/03/09 22:36:56;;;;;;;11.10;5.32;;;6.80;1.00;;;;;;10449785;28;88951;-52
2022/03/09 22:41:57;;;;;;;11.32;4.75;;;6.80;1.00;;;;;;10474487;27;84965;-47
2022/03/09 22:46:57;;;;;;;10.60;5.00;;;6.70;1.00;;;;;;10491347;27;88468;-50
2022/03/09 22:51:58;;;;;;;10.02;4.68;;;6.60;1.00;;;;;;10493601;27;84982;-49
2022/03/09 22:56:59;;;;;;;10.73;4.78;;;6.60;1.00;;;;;;10459031;27;84904;-48
2022/03/09 23:01:59;;;;;;;11.80;5.57;;;6.40;1.00;;;;;;10451524;27;84142;-48
2022/03/09 23:07:00;;;;;;;8.43;4.53;;;6.40;1.00;;;;;;10457027;28;100482;-46
2022/03/09 23:12:00;;;;;;;12.02;5.25;;;6.20;1.00;;;;;;10480790;27;84996;-47
2022/03/09 23:17:01;;;;;;;12.63;4.68;;;6.30;1.00;;;;;;10498220;27;84782;-47
2022/03/09 23:22:02;;;;;;;8.40;4.68;;;6.20;1.00;;;;;;10499642;27;84078;-47
2022/03/09 23:27:04;;;;;;;10.57;4.43;;;6.20;1.00;;;;;;10495294;27;84969;-52
2022/03/09 23:32:05;;;;;;;8.70;4.13;;;6.20;1.00;;;;;;10500779;27;84743;-47
2022/03/09 23:37:06;;;;;;;7.70;4.38;;;6.10;1.00;;;;;;10497448;27;86904;-47
2022/03/09 23:42:06;;;;;;;10.10;4.07;;;6.00;1.00;;;;;;10496373;27;84993;-47
2022/03/09 23:47:07;;;;;;;11.35;4.63;;;5.90;1.00;;;;;;10413657;28;85995;-44
2022/03/09 23:52:07;;;;;;;11.05;4.97;;;5.80;1.00;;;;;;10415118;28;84940;-47
2022/03/09 23:57:09;;;;;;;10.65;5.10;;;5.70;1.00;;;;;;10413394;28;88159;-49
